createdAt,value
2017-11-18T00:03:22.060Z,44.08
2017-11-18T00:05:54.618Z,44.12
2017-11-18T00:08:28.150Z,44.09
2017-11-18T00:11:02.421Z,43.95
2017-11-18T00:16:16.143Z,43.78
2017-11-18T00:18:49.201Z,43.74
2017-11-18T00:21:21.020Z,43.64
2017-11-18T00:23:56.110Z,43.52
2017-11-18T00:26:28.091Z,43.39
2017-11-18T00:29:00.000Z,43.37
2017-11-18T00:31:35.534Z,43.38
2017-11-18T00:34:10.361Z,43.29
2017-11-18T00:36:45.689Z,43.45
2017-11-18T00:39:18.405Z,43.44
2017-11-18T00:41:49.962Z,43.44
2017-11-18T00:44:23.186Z,43.47
2017-11-18T00:46:54.527Z,43.49
2017-11-18T00:49:27.116Z,43.50
2017-11-18T00:51:59.062Z,43.52
2017-11-18T00:54:30.220Z,43.59
2017-11-18T00:57:04.029Z,43.57
2017-11-18T00:59:35.985Z,43.53
2017-11-18T01:02:07.245Z,43.53
2017-11-18T01:04:38.476Z,43.59
2017-11-18T01:07:09.614Z,43.51
2017-11-18T01:09:40.691Z,43.61
2017-11-18T01:12:12.347Z,43.64
2017-11-18T01:14:46.012Z,43.69
2017-11-18T01:17:18.984Z,43.73
2017-11-18T01:19:52.780Z,43.67
2017-11-18T01:22:24.296Z,43.75
2017-11-18T01:24:56.228Z,43.82
2017-11-18T01:27:27.925Z,43.85
2017-11-18T01:29:59.469Z,43.84
2017-11-18T01:32:31.864Z,43.85
2017-11-18T01:35:03.895Z,43.70
2017-11-18T01:37:36.482Z,43.73
2017-11-18T01:40:10.949Z,43.67
2017-11-18T01:42:43.332Z,43.68
2017-11-18T01:45:15.649Z,43.73
2017-11-18T01:47:48.856Z,43.74
2017-11-18T01:50:21.994Z,43.80
2017-11-18T01:52:53.749Z,43.90
2017-11-18T01:55:29.098Z,43.89
2017-11-18T01:58:02.009Z,43.89
2017-11-18T02:00:35.574Z,43.92
2017-11-18T02:03:06.966Z,43.80
2017-11-18T02:05:39.688Z,43.73
2017-11-18T02:08:11.446Z,43.63
2017-11-18T02:10:44.573Z,43.40
2017-11-18T02:13:16.317Z,43.32
2017-11-18T02:15:47.770Z,43.31
2017-11-18T02:18:20.076Z,43.27
2017-11-18T02:20:52.461Z,43.20
2017-11-18T02:23:24.750Z,43.16
2017-11-18T02:25:58.148Z,43.03
2017-11-18T02:28:29.730Z,43.06
2017-11-18T02:31:02.534Z,43.04
2017-11-18T02:33:34.270Z,43.05
2017-11-18T02:36:05.887Z,43.05
2017-11-18T02:38:37.763Z,43.08
2017-11-18T02:41:10.370Z,43.11
2017-11-18T02:43:42.393Z,43.16
2017-11-18T02:46:15.657Z,43.15
2017-11-18T02:48:48.889Z,43.17
2017-11-18T02:51:20.491Z,43.34
2017-11-18T02:53:53.100Z,43.33
2017-11-18T02:56:26.716Z,43.27
2017-11-18T02:59:01.798Z,43.23
2017-11-18T03:01:33.288Z,43.18
2017-11-18T03:04:04.869Z,43.31
2017-11-18T03:06:37.060Z,43.38
2017-11-18T03:09:08.740Z,43.43
2017-11-18T03:11:48.363Z,43.29
2017-11-18T03:14:19.906Z,43.17
2017-11-18T03:16:53.052Z,43.31
2017-11-18T03:19:25.801Z,43.38
2017-11-18T03:21:57.289Z,43.34
2017-11-18T03:24:29.120Z,43.32
2017-11-18T03:27:00.572Z,43.20
2017-11-18T03:29:32.199Z,43.23
2017-11-18T03:32:04.197Z,43.21
2017-11-18T03:34:35.273Z,43.30
2017-11-18T03:37:07.147Z,43.41
2017-11-18T03:39:39.181Z,43.51
2017-11-18T03:42:10.293Z,43.51
2017-11-18T03:44:41.779Z,43.49
2017-11-18T03:47:13.509Z,43.44
2017-11-18T03:49:45.603Z,43.37
2017-11-18T03:52:16.698Z,43.35
2017-11-18T03:54:47.728Z,43.22
2017-11-18T03:57:19.390Z,43.20
2017-11-18T03:59:50.864Z,43.18
2017-11-18T04:02:22.635Z,43.17
2017-11-18T04:04:54.204Z,43.09
2017-11-18T04:07:25.869Z,42.92
2017-11-18T04:09:58.161Z,42.81
2017-11-18T04:12:30.717Z,42.78
2017-11-18T04:15:02.367Z,42.79
2017-11-18T04:17:34.954Z,42.78
2017-11-18T04:20:11.660Z,42.84
2017-11-18T04:22:43.386Z,42.86
2017-11-18T04:25:14.981Z,42.81
2017-11-18T04:27:46.450Z,42.83
2017-11-18T04:30:18.352Z,42.84
2017-11-18T04:32:49.809Z,42.93
2017-11-18T04:35:24.713Z,42.91
2017-11-18T04:37:56.951Z,42.89
2017-11-18T04:40:28.412Z,42.87
2017-11-18T04:43:00.444Z,42.94
2017-11-18T04:45:32.610Z,42.92
2017-11-18T04:48:04.321Z,43.01
2017-11-18T04:50:36.567Z,42.91
2017-11-18T04:53:08.691Z,43.01
2017-11-18T04:55:41.054Z,43.08
2017-11-18T04:58:14.486Z,43.04
2017-11-18T05:00:45.780Z,43.09
2017-11-18T05:03:17.470Z,43.13
2017-11-18T05:05:49.932Z,43.04
2017-11-18T05:08:21.228Z,43.12
2017-11-18T05:10:53.049Z,43.04
2017-11-18T05:13:24.706Z,43.08
2017-11-18T05:15:57.390Z,43.05
2017-11-18T05:18:29.386Z,43.09
2017-11-18T05:21:01.324Z,43.06
2017-11-18T05:23:34.581Z,43.14
2017-11-18T05:26:06.823Z,43.08
2017-11-18T05:28:39.221Z,43.13
2017-11-18T05:31:11.942Z,43.15
2017-11-18T05:33:43.493Z,43.16
2017-11-18T05:36:15.979Z,43.22
2017-11-18T05:38:48.917Z,43.27
2017-11-18T05:41:20.577Z,43.24
2017-11-18T05:43:53.111Z,43.19
2017-11-18T05:46:25.050Z,43.20
2017-11-18T05:48:59.837Z,43.21
2017-11-18T05:51:31.957Z,43.13
2017-11-18T05:54:04.009Z,43.02
2017-11-18T05:56:36.179Z,42.92
2017-11-18T05:59:11.809Z,42.77
2017-11-18T06:01:43.653Z,42.68
2017-11-18T06:04:16.012Z,42.68
2017-11-18T06:06:48.929Z,42.62
2017-11-18T06:09:23.971Z,42.67
2017-11-18T06:11:57.796Z,42.70
2017-11-18T06:14:31.621Z,42.61
2017-11-18T06:17:06.068Z,42.62
2017-11-18T06:19:38.792Z,42.58
2017-11-18T06:22:10.613Z,42.68
2017-11-18T06:24:43.779Z,42.69
2017-11-18T06:27:15.508Z,42.80
2017-11-18T06:29:47.344Z,42.84
2017-11-18T06:32:18.734Z,42.83
2017-11-18T06:34:50.321Z,42.76
2017-11-18T06:37:23.023Z,42.85
2017-11-18T06:39:56.772Z,42.85
2017-11-18T06:42:28.402Z,42.80
2017-11-18T06:45:02.211Z,42.89
2017-11-18T06:47:33.479Z,42.99
2017-11-18T06:50:07.392Z,42.97
2017-11-18T06:52:40.847Z,42.96
2017-11-18T06:55:13.538Z,43.02
2017-11-18T06:57:47.717Z,43.00
2017-11-18T07:00:20.002Z,43.02
2017-11-18T07:02:51.395Z,43.06
2017-11-18T07:05:23.185Z,43.00
2017-11-18T07:07:56.138Z,43.06
2017-11-18T07:10:29.506Z,43.00
2017-11-18T07:13:03.096Z,42.96
2017-11-18T07:15:36.084Z,42.97
2017-11-18T07:18:10.551Z,42.96
2017-11-18T07:20:41.589Z,42.89
2017-11-18T07:23:13.222Z,42.90
2017-11-18T07:25:49.369Z,42.83
2017-11-18T07:28:20.710Z,42.83
2017-11-18T07:30:52.961Z,42.77
2017-11-18T07:33:24.909Z,42.72
2017-11-18T07:35:56.437Z,42.64
2017-11-18T07:38:28.000Z,42.68
2017-11-18T07:40:59.172Z,42.58
2017-11-18T07:43:32.176Z,42.42
2017-11-18T07:46:03.135Z,42.37
2017-11-18T07:48:34.388Z,42.23
2017-11-18T07:51:05.821Z,42.11
2017-11-18T07:53:37.203Z,42.03
2017-11-18T07:56:08.374Z,41.83
2017-11-18T07:58:40.024Z,41.71
2017-11-18T08:01:11.905Z,41.68
2017-11-18T08:03:44.567Z,41.70
2017-11-18T08:06:17.576Z,41.48
2017-11-18T08:08:53.667Z,41.51
2017-11-18T08:11:28.414Z,41.40
2017-11-18T08:14:03.012Z,41.36
2017-11-18T08:16:34.204Z,41.32
2017-11-18T08:19:05.833Z,41.28
2017-11-18T08:21:37.666Z,41.31
2017-11-18T08:24:10.542Z,41.25
2017-11-18T08:26:47.421Z,41.23
2017-11-18T08:29:23.876Z,41.25
2017-11-18T08:32:02.355Z,41.19
2017-11-18T08:34:35.825Z,41.20
2017-11-18T08:37:08.845Z,41.21
2017-11-18T08:39:39.964Z,41.23
2017-11-18T08:42:11.503Z,41.27
2017-11-18T08:44:45.005Z,41.31
2017-11-18T08:47:17.621Z,41.41
2017-11-18T08:49:50.925Z,41.21
2017-11-18T08:52:26.465Z,41.28
2017-11-18T08:55:11.047Z,41.24
2017-11-18T08:57:42.400Z,41.30
2017-11-18T09:00:19.414Z,41.29
2017-11-18T09:03:04.946Z,41.09
2017-11-18T09:07:00.757Z,41.12
2017-11-18T09:09:34.502Z,41.21
2017-11-18T09:12:08.859Z,41.12
2017-11-18T09:14:41.835Z,41.07
2017-11-18T09:17:22.242Z,40.88
2017-11-18T09:19:56.973Z,40.89
2017-11-18T09:22:32.770Z,40.95
2017-11-18T09:25:10.519Z,41.05
2017-11-18T09:27:49.262Z,40.98
2017-11-18T09:30:21.808Z,40.95
2017-11-18T09:32:53.528Z,40.86
2017-11-18T09:35:27.818Z,40.77
2017-11-18T09:38:00.749Z,40.73
2017-11-18T09:40:32.057Z,40.76
2017-11-18T09:43:05.569Z,40.72
2017-11-18T09:45:36.831Z,40.61
2017-11-18T09:48:13.105Z,40.51
2017-11-18T09:50:44.069Z,40.45
2017-11-18T09:53:18.013Z,40.49
2017-11-18T09:55:49.496Z,40.30
2017-11-18T09:58:20.601Z,40.22
2017-11-18T10:00:51.814Z,40.19
2017-11-18T10:03:23.622Z,40.06
2017-11-18T10:05:54.584Z,40.14
2017-11-18T10:08:25.518Z,40.28
2017-11-18T10:10:58.889Z,40.22
2017-11-18T10:14:54.856Z,40.24
2017-11-18T10:17:28.204Z,40.25
2017-11-18T10:20:01.601Z,40.12
2017-11-18T10:22:34.537Z,40.13
2017-11-18T10:25:11.755Z,40.06
2017-11-18T10:27:43.224Z,40.03
2017-11-18T10:30:15.297Z,40.02
2017-11-18T10:32:46.376Z,39.97
2017-11-18T10:35:17.723Z,39.97
2017-11-18T10:37:48.884Z,39.95
2017-11-18T10:40:19.907Z,39.99
2017-11-18T10:42:50.895Z,40.01
2017-11-18T10:45:32.785Z,40.10
2017-11-18T10:48:05.162Z,40.20
2017-11-18T10:50:36.468Z,40.25
2017-11-18T10:53:11.497Z,40.22
2017-11-18T10:55:43.811Z,40.14
2017-11-18T10:58:18.174Z,40.07
2017-11-18T11:00:57.037Z,40.21
2017-11-18T11:03:28.447Z,40.31
2017-11-18T11:06:01.852Z,40.29
2017-11-18T11:08:33.122Z,40.39
2017-11-18T11:11:06.459Z,40.44
2017-11-18T11:13:42.085Z,40.51
2017-11-18T11:16:14.657Z,40.49
2017-11-18T11:18:48.672Z,40.55
2017-11-18T11:21:22.775Z,40.65
2017-11-18T11:23:58.617Z,40.66
2017-11-18T11:26:31.991Z,40.51
2017-11-18T11:29:04.651Z,40.41
2017-11-18T11:31:37.388Z,40.27
2017-11-18T11:34:10.414Z,40.40
2017-11-18T11:36:41.636Z,40.32
2017-11-18T11:39:12.896Z,40.24
2017-11-18T11:41:44.543Z,39.94
2017-11-18T11:44:16.125Z,39.85
2017-11-18T11:46:51.737Z,39.76
2017-11-18T11:49:24.435Z,39.69
2017-11-18T11:52:03.714Z,39.63
2017-11-18T11:54:41.814Z,39.63
2017-11-18T11:57:13.611Z,39.60
2017-11-18T11:59:50.261Z,39.55
2017-11-18T12:02:22.401Z,39.47
2017-11-18T12:04:53.797Z,39.48
2017-11-18T12:07:25.797Z,39.45
2017-11-18T12:09:58.085Z,39.46
2017-11-18T12:12:30.180Z,39.58
2017-11-18T12:15:05.587Z,39.67
2017-11-18T12:20:21.863Z,39.46
2017-11-18T12:22:59.897Z,39.53
2017-11-18T12:25:31.788Z,39.55
2017-11-18T12:28:03.192Z,39.59
2017-11-18T12:30:34.903Z,39.52
2017-11-18T12:33:06.935Z,39.70
2017-11-18T12:35:38.440Z,39.85
2017-11-18T12:38:09.947Z,39.85
2017-11-18T12:40:41.589Z,39.97
2017-11-18T12:43:12.887Z,40.27
2017-11-18T12:45:44.053Z,40.15
2017-11-18T12:48:16.106Z,40.33
2017-11-18T12:50:47.722Z,40.29
2017-11-18T12:53:19.301Z,40.50
2017-11-18T12:55:50.657Z,40.53
2017-11-18T12:58:22.169Z,40.66
2017-11-18T13:00:53.661Z,40.71
2017-11-18T13:03:24.734Z,40.65
2017-11-18T13:05:55.862Z,40.64
2017-11-18T13:08:27.170Z,40.67
2017-11-18T13:10:58.525Z,40.78
2017-11-18T13:13:30.435Z,40.75
2017-11-18T13:16:02.705Z,40.82
2017-11-18T13:18:34.369Z,40.86
2017-11-18T13:21:05.841Z,40.96
2017-11-18T13:23:36.823Z,40.95
2017-11-18T13:26:07.939Z,40.87
2017-11-18T13:28:39.084Z,40.86
2017-11-18T13:31:11.514Z,40.77
2017-11-18T13:33:43.498Z,40.68
2017-11-18T13:36:43.593Z,40.52
2017-11-18T13:40:20.832Z,40.21
2017-11-18T13:42:54.103Z,40.15
2017-11-18T13:45:25.480Z,40.24
2017-11-18T13:47:56.697Z,40.26
2017-11-18T13:50:28.359Z,40.16
2017-11-18T13:52:59.537Z,40.20
2017-11-18T13:55:31.038Z,40.24
2017-11-18T13:58:02.503Z,39.96
2017-11-18T14:00:35.422Z,40.09
2017-11-18T14:03:10.836Z,40.09
2017-11-18T14:05:42.071Z,40.05
2017-11-18T14:08:13.512Z,39.68
2017-11-18T14:10:44.909Z,39.67
2017-11-18T14:13:16.384Z,39.79
2017-11-18T14:15:48.329Z,39.70
2017-11-18T14:18:19.883Z,39.81
2017-11-18T14:20:51.891Z,39.70
2017-11-18T14:23:23.054Z,39.71
2017-11-18T14:25:54.490Z,39.84
2017-11-18T14:28:26.328Z,39.94
2017-11-18T14:31:19.879Z,39.91
2017-11-18T14:33:53.971Z,39.91
2017-11-18T14:36:27.102Z,39.92
2017-11-18T14:38:58.525Z,40.06
2017-11-18T14:41:30.321Z,40.11
2017-11-18T14:44:02.576Z,40.09
2017-11-18T14:46:34.384Z,40.26
2017-11-18T14:49:06.870Z,40.36
2017-11-18T14:53:18.131Z,40.33
2017-11-18T14:56:00.064Z,40.42
2017-11-18T14:58:36.245Z,40.58
2017-11-18T15:01:17.876Z,40.47
2017-11-18T15:04:02.180Z,40.56
2017-11-18T15:06:34.586Z,40.72
2017-11-18T15:09:08.991Z,40.75
2017-11-18T15:11:41.129Z,40.78
2017-11-18T15:14:13.974Z,40.80
2017-11-18T15:16:56.881Z,40.73
2017-11-18T15:19:28.575Z,40.74
2017-11-18T15:22:00.958Z,40.77
2017-11-18T15:24:36.854Z,40.72
2017-11-18T15:27:12.516Z,40.68
2017-11-18T15:33:54.916Z,40.49
2017-11-18T15:36:40.223Z,40.50
2017-11-18T15:39:13.294Z,40.55
2017-11-18T15:41:46.507Z,40.56
2017-11-18T15:44:18.759Z,40.53
2017-11-18T15:46:51.717Z,40.55
2017-11-18T15:49:28.579Z,40.50
2017-11-18T15:52:01.809Z,40.57
2017-11-18T15:54:37.223Z,40.63
2017-11-18T15:57:09.234Z,40.60
2017-11-18T15:59:41.816Z,40.61
2017-11-18T16:02:13.298Z,40.72
2017-11-18T16:04:44.989Z,40.74
2017-11-18T16:07:17.362Z,40.76
2017-11-18T16:09:48.998Z,40.73
2017-11-18T16:12:20.245Z,40.74
2017-11-18T16:14:53.451Z,40.80
2017-11-18T16:17:26.143Z,40.89
2017-11-18T16:19:59.501Z,40.81
2017-11-18T16:22:32.350Z,40.84
2017-11-18T16:25:09.154Z,40.78
2017-11-18T16:27:42.701Z,40.90
2017-11-18T16:30:15.940Z,40.91
2017-11-18T16:32:47.635Z,40.75
2017-11-18T16:35:19.802Z,40.72
2017-11-18T16:37:51.863Z,40.75
2017-11-18T16:40:23.462Z,40.78
2017-11-18T16:42:57.969Z,40.80
2017-11-18T16:45:29.456Z,40.76
2017-11-18T16:48:01.431Z,40.68
2017-11-18T16:50:33.048Z,40.80
2017-11-18T16:53:05.069Z,40.88
2017-11-18T16:55:37.849Z,40.91
2017-11-18T16:58:10.855Z,41.02
2017-11-18T17:00:43.123Z,41.07
2017-11-18T17:03:15.097Z,41.06
2017-11-18T17:05:47.790Z,41.01
2017-11-18T17:08:25.393Z,41.03
2017-11-18T17:10:57.131Z,41.02
2017-11-18T17:13:30.628Z,40.99
2017-11-18T17:16:03.166Z,40.84
2017-11-18T17:18:36.496Z,40.80
2017-11-18T17:21:08.915Z,40.80
2017-11-18T17:23:40.855Z,40.75
2017-11-18T17:26:14.330Z,40.69
2017-11-18T17:28:45.892Z,40.63
2017-11-18T17:31:18.737Z,40.58
2017-11-18T17:33:50.944Z,40.63
2017-11-18T17:36:22.701Z,40.66
2017-11-18T17:38:54.126Z,40.67
2017-11-18T17:41:26.564Z,40.69
2017-11-18T17:43:58.019Z,40.74
2017-11-18T17:46:31.309Z,40.73
2017-11-18T17:49:02.588Z,40.78
2017-11-18T17:51:34.653Z,40.81
2017-11-18T17:54:06.034Z,40.82
2017-11-18T17:56:37.654Z,40.87
2017-11-18T17:59:10.259Z,40.89
2017-11-18T18:01:41.921Z,40.91
2017-11-18T18:04:13.528Z,40.90
2017-11-18T18:06:45.161Z,40.95
2017-11-18T18:09:16.814Z,40.97
2017-11-18T18:11:48.949Z,40.96
2017-11-18T18:14:20.239Z,40.94
2017-11-18T18:16:51.853Z,40.98
2017-11-18T18:19:23.506Z,40.96
2017-11-18T18:21:55.952Z,40.92
2017-11-18T18:24:27.499Z,41.04
2017-11-18T18:26:58.662Z,41.05
2017-11-18T18:29:32.054Z,41.04
2017-11-18T18:32:03.539Z,41.10
2017-11-18T18:34:34.824Z,41.13
2017-11-18T18:37:06.740Z,41.11
2017-11-18T18:39:38.801Z,41.17
2017-11-18T18:42:10.195Z,41.20
2017-11-18T18:44:43.697Z,41.17
2017-11-18T18:47:15.309Z,41.15
2017-11-18T18:49:46.785Z,41.16
2017-11-18T18:52:18.114Z,41.15
2017-11-18T18:54:50.651Z,41.13
2017-11-18T18:57:21.689Z,41.05
2017-11-18T18:59:52.899Z,40.93
2017-11-18T19:02:24.559Z,40.90
2017-11-18T19:04:55.874Z,40.80
2017-11-18T19:07:27.868Z,40.65
2017-11-18T19:09:59.492Z,40.59
2017-11-18T19:12:30.969Z,40.62
2017-11-18T19:15:03.166Z,40.60
2017-11-18T19:17:35.690Z,40.42
2017-11-18T19:20:07.079Z,40.47
2017-11-18T19:22:38.207Z,40.46
2017-11-18T19:25:11.163Z,40.42
2017-11-18T19:27:42.205Z,40.46
2017-11-18T19:30:14.549Z,40.41
2017-11-18T19:32:45.717Z,40.46
2017-11-18T19:35:18.628Z,40.36
2017-11-18T19:37:54.336Z,40.44
2017-11-18T19:40:28.113Z,40.49
2017-11-18T19:43:11.748Z,40.55
2017-11-18T19:45:49.321Z,40.50
2017-11-18T19:48:20.846Z,40.57
2017-11-18T19:50:52.835Z,40.51
2017-11-18T19:53:24.529Z,40.56
2017-11-18T19:55:56.110Z,40.56
2017-11-18T19:58:27.660Z,40.43
2017-11-18T20:00:59.600Z,40.48
2017-11-18T20:03:32.613Z,40.64
2017-11-18T20:06:15.165Z,40.71
2017-11-18T20:08:47.731Z,40.66
2017-11-18T20:11:20.095Z,40.68
2017-11-18T20:13:52.797Z,40.71
2017-11-18T20:16:26.180Z,40.83
2017-11-18T20:18:57.727Z,40.72
2017-11-18T20:21:29.443Z,40.78
2017-11-18T20:24:01.157Z,40.85
2017-11-18T20:26:34.391Z,40.94
2017-11-18T20:29:06.865Z,40.91
2017-11-18T20:31:40.083Z,40.84
2017-11-18T20:34:12.194Z,40.96
2017-11-18T20:36:50.213Z,40.97
2017-11-18T20:39:23.408Z,40.92
2017-11-18T20:41:55.285Z,40.94
2017-11-18T20:44:27.116Z,40.88
2017-11-18T20:46:58.543Z,40.90
2017-11-18T20:49:30.823Z,40.74
2017-11-18T20:52:02.707Z,40.69
2017-11-18T20:54:34.245Z,40.60
2017-11-18T20:57:18.618Z,40.45
2017-11-18T21:00:04.227Z,40.57
2017-11-18T21:02:37.361Z,40.52
2017-11-18T21:05:09.484Z,40.56
2017-11-18T21:07:41.085Z,40.43
2017-11-18T21:15:24.565Z,40.53
2017-11-18T21:18:01.169Z,40.53
2017-11-18T21:20:32.573Z,40.49
2017-11-18T21:23:05.453Z,40.45
2017-11-18T21:25:39.771Z,40.55
2017-11-18T21:28:12.498Z,40.61
2017-11-18T21:30:44.499Z,40.64
2017-11-18T21:33:16.906Z,40.69
2017-11-18T21:35:49.471Z,40.72
2017-11-18T21:38:23.143Z,40.81
2017-11-18T21:40:55.331Z,40.83
2017-11-18T21:43:27.710Z,40.77
2017-11-18T21:45:59.394Z,40.86
2017-11-18T21:48:31.100Z,40.81
2017-11-18T21:51:09.257Z,40.80
2017-11-18T21:53:41.736Z,40.80
2017-11-18T21:56:13.729Z,40.85
2017-11-18T21:58:46.652Z,40.89
2017-11-18T22:01:18.407Z,40.98
2017-11-18T22:03:51.363Z,41.03
2017-11-18T22:06:23.804Z,41.01
2017-11-18T22:08:55.544Z,41.00
2017-11-18T22:11:28.464Z,41.00
2017-11-18T22:13:59.894Z,41.00
2017-11-18T22:16:33.712Z,41.04
2017-11-18T22:19:05.560Z,41.07
2017-11-18T22:21:37.674Z,41.12
2017-11-18T22:24:09.877Z,41.07
2017-11-18T22:26:42.455Z,41.03
2017-11-18T22:29:14.501Z,41.13
2017-11-18T22:31:46.600Z,41.06
2017-11-18T22:34:18.157Z,40.97
2017-11-18T22:36:49.752Z,40.96
2017-11-18T22:39:21.525Z,40.90
2017-11-18T22:41:53.871Z,40.87
2017-11-18T22:44:25.298Z,40.77
2017-11-18T22:46:57.094Z,40.70
2017-11-18T22:49:29.605Z,40.62
2017-11-18T22:52:01.731Z,40.53
2017-11-18T22:54:33.372Z,40.46
2017-11-18T22:57:05.310Z,40.49
2017-11-18T22:59:37.122Z,40.47
2017-11-18T23:02:09.368Z,40.40
2017-11-18T23:04:42.434Z,40.47
2017-11-18T23:07:14.116Z,40.49
2017-11-18T23:09:47.378Z,40.56
2017-11-18T23:12:20.005Z,40.64
2017-11-18T23:14:52.947Z,40.71
2017-11-18T23:17:25.377Z,40.72
2017-11-18T23:19:57.487Z,40.80
2017-11-18T23:22:30.517Z,40.84
2017-11-18T23:25:02.414Z,40.85
2017-11-18T23:27:34.182Z,40.92
2017-11-18T23:30:07.968Z,40.91
2017-11-18T23:32:39.623Z,40.97
2017-11-18T23:35:12.570Z,41.01
2017-11-18T23:37:45.829Z,41.03
2017-11-18T23:40:17.624Z,41.02
2017-11-18T23:42:49.914Z,41.08
2017-11-18T23:45:20.926Z,41.08
2017-11-18T23:47:53.290Z,41.10
2017-11-18T23:50:26.256Z,41.12
2017-11-18T23:52:58.052Z,41.15
2017-11-18T23:55:29.869Z,41.20
2017-11-18T23:58:01.074Z,41.20
